Time;durP1;ratioP1;P1;durP2;ratioP2;P2;SDS_P1;SDS_P2;PMS_P1;PMS_P2;Temp;Humidity;BMP_temperature;BMP_pressure;BME280_temperature;BME280_humidity;BME280_pressure;Samples;Min_cycle;Max_cycle;Signal;HPM_P1;HPM_P2
2023/06/02 00:02:18;;;;;;;5.72;3.92;;;16.00;99.90;;;;;;5000714;28;20094;-70
2023/06/02 00:04:44;;;;;;;8.23;4.10;;;15.90;99.90;;;;;;5000694;28;20034;-70
2023/06/02 00:07:11;;;;;;;6.43;3.90;;;15.90;99.90;;;;;;4999957;28;20034;-70
2023/06/02 00:09:39;;;;;;;7.13;4.25;;;15.80;99.90;;;;;;4999822;28;20019;-70
2023/06/02 00:12:05;;;;;;;6.95;4.50;;;15.70;99.90;;;;;;4999796;28;20063;-70
2023/06/02 00:14:32;;;;;;;7.95;4.10;;;15.80;99.90;;;;;;5000117;28;20026;-70
2023/06/02 00:17:00;;;;;;;7.93;4.47;;;15.70;99.90;;;;;;5000371;28;20022;-70
2023/06/02 00:19:30;;;;;;;7.30;4.20;;;15.50;99.90;;;;;;4999713;28;20037;-70
2023/06/02 00:22:01;;;;;;;12.57;4.53;;;15.50;99.90;;;;;;5000457;28;20033;-70
2023/06/02 00:24:26;;;;;;;8.88;4.47;;;15.70;99.90;;;;;;4999475;28;20023;-70
2023/06/02 00:26:52;;;;;;;6.85;4.68;;;15.80;99.90;;;;;;4999417;28;20034;-70
2023/06/02 00:29:17;;;;;;;7.15;4.65;;;15.80;99.90;;;;;;4999578;28;20044;-71
2023/06/02 00:31:43;;;;;;;7.03;5.05;;;15.60;99.90;;;;;;5023332;22;20045;-67
2023/06/02 00:34:10;;;;;;;10.07;4.88;;;15.40;99.90;;;;;;4999836;28;20077;-67
2023/06/02 00:36:36;;;;;;;7.65;4.22;;;15.30;99.90;;;;;;5000215;28;20026;-67
2023/06/02 00:39:02;;;;;;;7.55;4.50;;;15.50;99.90;;;;;;4999208;28;20022;-67
2023/06/02 00:41:28;;;;;;;7.97;4.20;;;15.60;99.90;;;;;;4999411;28;20026;-67
2023/06/02 00:43:53;;;;;;;6.57;4.07;;;15.50;99.90;;;;;;4999259;28;20045;-67
2023/06/02 00:46:19;;;;;;;10.57;4.45;;;15.50;99.90;;;;;;5000050;28;20026;-67
2023/06/02 00:48:48;;;;;;;7.15;4.78;;;15.60;99.90;;;;;;4999378;28;20033;-67
2023/06/02 00:51:14;;;;;;;6.43;3.92;;;15.40;99.90;;;;;;4999923;28;20023;-67
2023/06/02 00:53:40;;;;;;;8.35;4.80;;;15.40;99.90;;;;;;4998977;28;20030;-67
2023/06/02 00:56:06;;;;;;;8.18;3.67;;;15.50;99.90;;;;;;4998955;28;20045;-68
2023/06/02 00:58:37;;;;;;;7.70;4.13;;;15.40;99.90;;;;;;4999657;28;20113;-67
2023/06/02 01:01:03;;;;;;;6.87;4.00;;;15.60;99.90;;;;;;4998823;28;20026;-68
2023/06/02 01:03:29;;;;;;;6.55;4.18;;;15.70;99.90;;;;;;4998785;28;20023;-67
2023/06/02 01:05:57;;;;;;;11.18;4.55;;;15.60;99.90;;;;;;5000156;28;20023;-67
2023/06/02 01:08:24;;;;;;;6.07;3.78;;;15.50;99.90;;;;;;4998701;28;20029;-67
2023/06/02 01:10:50;;;;;;;9.68;4.22;;;15.50;99.90;;;;;;4998857;28;20022;-68
2023/06/02 01:13:16;;;;;;;10.45;3.72;;;15.60;99.90;;;;;;4999420;28;20062;-67
2023/06/02 01:15:44;;;;;;;7.47;4.15;;;15.70;99.90;;;;;;4999763;28;20034;-67
2023/06/02 01:18:12;;;;;;;9.90;4.15;;;15.70;99.90;;;;;;4998421;28;20026;-67
2023/06/02 01:20:51;;;;;;;8.60;4.32;;;15.60;99.90;;;;;;4998841;28;20042;-67
2023/06/02 01:23:32;;;;;;;9.60;4.28;;;15.60;99.90;;;;;;4999185;28;20030;-67
2023/06/02 01:25:57;;;;;;;8.00;4.25;;;15.60;99.90;;;;;;4999300;28;20026;-67
2023/06/02 01:28:23;;;;;;;7.82;4.47;;;15.60;99.90;;;;;;4998489;28;20182;-67
2023/06/02 01:30:52;;;;;;;11.75;5.05;;;15.60;99.90;;;;;;4998217;28;20039;-67
2023/06/02 01:33:23;;;;;;;11.82;4.68;;;15.50;99.90;;;;;;4998204;28;20027;-68
2023/06/02 01:35:54;;;;;;;7.55;4.40;;;15.60;99.90;;;;;;4997294;28;20027;-67
2023/06/02 01:38:21;;;;;;;7.72;4.30;;;15.50;99.90;;;;;;4998116;28;20132;-67
2023/06/02 01:40:47;;;;;;;7.72;4.50;;;15.60;99.90;;;;;;4998079;28;20037;-67
2023/06/02 01:43:13;;;;;;;7.38;4.43;;;15.50;99.90;;;;;;4998815;28;20026;-67
2023/06/02 01:45:41;;;;;;;8.88;4.43;;;15.40;99.90;;;;;;4998025;28;20038;-67
2023/06/02 01:48:08;;;;;;;10.05;4.15;;;15.30;99.90;;;;;;4998805;28;20065;-67
2023/06/02 01:50:35;;;;;;;10.82;4.80;;;15.30;99.90;;;;;;4998762;28;20040;-67
2023/06/02 01:53:01;;;;;;;9.60;4.38;;;15.30;99.90;;;;;;4998785;28;20061;-67
2023/06/02 01:55:26;;;;;;;8.60;4.63;;;15.40;99.90;;;;;;4997783;28;20026;-67
2023/06/02 01:57:52;;;;;;;8.65;5.00;;;15.40;99.90;;;;;;4998514;28;20037;-67
2023/06/02 02:00:19;;;;;;;10.85;4.40;;;15.20;99.90;;;;;;4998553;28;20022;-67
2023/06/02 02:02:45;;;;;;;12.25;4.22;;;15.20;99.90;;;;;;4998741;28;20034;-67
2023/06/02 02:05:11;;;;;;;10.13;4.18;;;15.10;99.90;;;;;;4997705;28;20018;-67
2023/06/02 02:07:37;;;;;;;8.43;4.20;;;15.20;99.90;;;;;;4997573;28;20022;-67
2023/06/02 02:10:03;;;;;;;10.18;4.45;;;14.80;99.90;;;;;;4997889;28;20026;-67
2023/06/02 02:12:29;;;;;;;9.95;5.00;;;15.00;99.90;;;;;;4997440;28;20030;-67
2023/06/02 02:14:57;;;;;;;8.45;4.43;;;15.00;99.90;;;;;;4997616;28;20023;-67
2023/06/02 02:17:25;;;;;;;11.18;4.65;;;14.90;99.90;;;;;;4997491;28;20035;-67
2023/06/02 02:19:51;;;;;;;7.90;4.55;;;14.80;99.90;;;;;;4998165;28;20022;-67
2023/06/02 02:22:17;;;;;;;10.45;4.43;;;14.80;99.90;;;;;;4998313;28;20023;-67
2023/06/02 02:24:42;;;;;;;14.48;4.97;;;14.90;99.90;;;;;;4998166;28;20023;-67
2023/06/02 02:27:08;;;;;;;10.07;4.35;;;15.00;99.90;;;;;;4998042;28;20054;-67
2023/06/02 02:29:35;;;;;;;13.05;4.65;;;14.70;99.90;;;;;;4997542;28;20025;-68
2023/06/02 02:32:01;;;;;;;10.15;4.75;;;14.70;99.90;;;;;;4997083;28;20034;-67
2023/06/02 02:34:28;;;;;;;12.80;5.28;;;14.70;99.90;;;;;;4997591;28;20030;-67
2023/06/02 02:36:58;;;;;;;12.82;4.70;;;14.40;99.90;;;;;;4997478;28;20030;-67
2023/06/02 02:39:24;;;;;;;8.60;4.38;;;14.20;99.90;;;;;;4998120;28;20026;-67
2023/06/02 02:41:50;;;;;;;7.43;3.90;;;14.30;99.90;;;;;;4997132;28;20076;-67
2023/06/02 02:44:15;;;;;;;14.52;4.63;;;14.50;99.90;;;;;;4997338;28;20023;-67
2023/06/02 02:46:41;;;;;;;12.75;4.95;;;14.40;99.90;;;;;;4997915;28;20018;-67
2023/06/02 02:49:08;;;;;;;13.77;4.38;;;14.30;99.90;;;;;;4996929;28;20033;-67
2023/06/02 02:51:33;;;;;;;11.40;3.97;;;14.20;99.90;;;;;;4997011;28;20069;-67
2023/06/02 02:53:59;;;;;;;12.95;5.03;;;14.40;99.90;;;;;;4996862;28;20065;-67
2023/06/02 02:56:27;;;;;;;14.02;4.72;;;14.50;99.90;;;;;;4997225;28;20070;-67
2023/06/02 02:58:56;;;;;;;9.40;4.50;;;14.20;99.90;;;;;;4997090;28;20029;-67
2023/06/02 03:01:22;;;;;;;11.73;4.75;;;14.20;99.90;;;;;;4996926;28;20046;-67
2023/06/02 03:03:49;;;;;;;10.88;4.30;;;14.20;99.90;;;;;;4996718;28;20110;-67
2023/06/02 03:06:18;;;;;;;11.95;4.78;;;14.00;99.90;;;;;;4997301;28;20023;-67
2023/06/02 03:08:44;;;;;;;8.98;4.47;;;13.50;99.90;;;;;;4997917;28;20069;-67
2023/06/02 03:11:11;;;;;;;10.45;3.50;;;13.80;99.90;;;;;;4997626;28;20086;-67
2023/06/02 03:13:36;;;;;;;7.18;4.15;;;14.00;99.90;;;;;;4996926;28;20033;-67
2023/06/02 03:16:02;;;;;;;12.15;4.97;;;13.90;99.90;;;;;;4996952;28;20034;-67
2023/06/02 03:18:28;;;;;;;7.10;4.30;;;13.70;99.90;;;;;;4996754;28;20026;-67
2023/06/02 03:20:54;;;;;;;11.23;4.65;;;13.80;99.90;;;;;;4996831;28;20022;-67
2023/06/02 03:23:20;;;;;;;6.00;3.92;;;13.80;99.90;;;;;;4996925;28;20029;-67
2023/06/02 03:25:46;;;;;;;6.60;4.00;;;13.90;99.90;;;;;;4997490;28;20054;-67
2023/06/02 03:28:12;;;;;;;10.65;4.47;;;14.00;99.90;;;;;;4996944;28;20066;-67
2023/06/02 03:30:38;;;;;;;11.20;4.85;;;14.30;99.90;;;;;;4996372;28;20038;-67
2023/06/02 03:33:03;;;;;;;7.70;4.15;;;14.30;99.90;;;;;;4996548;28;20031;-67
2023/06/02 03:35:29;;;;;;;13.13;4.45;;;14.10;99.90;;;;;;4996529;28;20028;-67
2023/06/02 03:37:55;;;;;;;9.35;4.60;;;14.20;99.90;;;;;;4996484;28;20100;-67
2023/06/02 03:40:20;;;;;;;15.05;5.15;;;14.20;99.90;;;;;;4997408;28;20031;-67
2023/06/02 03:42:46;;;;;;;8.25;4.30;;;14.30;99.90;;;;;;4996446;28;20102;-67
2023/06/02 03:45:11;;;;;;;9.70;4.50;;;13.90;99.90;;;;;;4996649;28;20108;-67
2023/06/02 03:47:37;;;;;;;12.68;4.32;;;14.00;99.90;;;;;;4997379;28;20034;-67
2023/06/02 03:50:03;;;;;;;7.32;4.32;;;14.00;99.90;;;;;;4996638;28;20077;-67
2023/06/02 03:52:31;;;;;;;11.48;4.65;;;13.70;99.90;;;;;;4997584;28;20026;-67
2023/06/02 03:54:57;;;;;;;9.85;4.15;;;13.60;99.90;;;;;;4997241;28;20023;-67
2023/06/02 03:57:23;;;;;;;9.85;4.75;;;13.40;99.90;;;;;;4996311;28;20030;-67
2023/06/02 03:59:49;;;;;;;9.95;4.22;;;13.30;99.90;;;;;;5000327;28;20042;-67
2023/06/02 04:02:15;;;;;;;8.95;4.13;;;13.30;99.90;;;;;;5001176;28;20022;-67
2023/06/02 04:04:41;;;;;;;9.18;4.15;;;13.60;99.90;;;;;;5000735;28;20054;-67
2023/06/02 04:07:07;;;;;;;13.80;4.70;;;13.60;99.90;;;;;;5000765;28;20022;-67
2023/06/02 04:09:33;;;;;;;10.23;4.45;;;13.50;99.90;;;;;;5000508;28;20034;-67
2023/06/02 04:11:59;;;;;;;10.65;4.30;;;13.60;99.90;;;;;;5000527;28;20027;-67
2023/06/02 04:14:25;;;;;;;10.48;4.05;;;13.50;99.90;;;;;;4999789;28;20026;-67
2023/06/02 04:16:50;;;;;;;6.63;4.55;;;13.50;99.90;;;;;;4999725;28;20030;-67
2023/06/02 04:19:16;;;;;;;7.03;3.75;;;13.30;99.90;;;;;;5000769;28;20065;-67
2023/06/02 04:21:41;;;;;;;6.65;3.88;;;13.60;99.90;;;;;;5000463;28;20033;-67
2023/06/02 04:24:07;;;;;;;9.30;4.03;;;13.40;99.90;;;;;;5000477;28;20030;-67
2023/06/02 04:26:32;;;;;;;9.60;3.83;;;13.70;99.90;;;;;;4999836;28;20036;-68
2023/06/02 04:28:58;;;;;;;7.20;4.20;;;14.00;99.90;;;;;;4999335;28;20026;-67
2023/06/02 04:31:39;;;;;;;6.15;3.58;;;13.80;99.90;;;;;;4999750;28;20042;-67
2023/06/02 04:34:06;;;;;;;6.07;3.58;;;14.00;99.90;;;;;;4999431;28;20117;-67
2023/06/02 04:36:32;;;;;;;10.18;4.45;;;14.00;99.90;;;;;;4999366;28;20068;-67
2023/06/02 04:38:57;;;;;;;7.95;4.18;;;14.10;99.90;;;;;;4999236;28;20042;-67
2023/06/02 04:41:24;;;;;;;10.02;3.53;;;13.90;99.90;;;;;;5000100;28;20086;-67
2023/06/02 04:43:50;;;;;;;9.38;4.03;;;14.10;99.90;;;;;;4999983;28;20033;-67
2023/06/02 04:46:16;;;;;;;5.72;3.70;;;14.00;99.90;;;;;;4999115;28;20026;-67
2023/06/02 04:48:42;;;;;;;9.88;4.38;;;13.80;99.90;;;;;;4999159;28;20026;-67
2023/06/02 04:51:07;;;;;;;10.40;4.20;;;13.60;99.90;;;;;;4999935;28;20022;-67
2023/06/02 04:53:33;;;;;;;9.57;3.88;;;13.60;99.90;;;;;;4999778;28;20033;-67
2023/06/02 04:55:58;;;;;;;7.95;4.10;;;13.60;99.90;;;;;;4999100;28;20062;-67
2023/06/02 04:58:24;;;;;;;5.25;3.72;;;13.40;99.90;;;;;;4998780;28;20026;-67
2023/06/02 05:00:50;;;;;;;7.72;3.88;;;13.70;99.90;;;;;;4999658;28;20019;-67
2023/06/02 05:03:15;;;;;;;5.88;3.30;;;13.90;99.90;;;;;;5000052;28;20106;-71
2023/06/02 05:05:41;;;;;;;6.35;3.88;;;13.90;99.90;;;;;;4998779;28;20033;-71
2023/06/02 05:08:07;;;;;;;5.28;3.33;;;14.10;99.90;;;;;;4998807;28;20026;-71
2023/06/02 05:10:32;;;;;;;9.95;4.15;;;14.00;99.90;;;;;;4999580;28;20029;-72
2023/06/02 05:12:58;;;;;;;10.30;3.65;;;14.10;99.90;;;;;;4998571;28;20034;-71
2023/06/02 05:15:23;;;;;;;7.70;3.20;;;14.20;99.90;;;;;;4998707;28;20030;-71
2023/06/02 05:17:49;;;;;;;14.80;3.60;;;14.20;99.90;;;;;;4998852;28;20038;-71
2023/06/02 05:20:15;;;;;;;6.25;3.78;;;14.30;99.90;;;;;;4998595;28;20022;-71
2023/06/02 05:22:40;;;;;;;7.85;3.42;;;14.40;99.90;;;;;;4998564;28;20113;-71
2023/06/02 05:25:07;;;;;;;8.32;2.90;;;14.50;99.90;;;;;;4998302;28;20057;-71
2023/06/02 05:27:33;;;;;;;12.95;3.63;;;14.20;99.90;;;;;;4998449;28;20019;-71
2023/06/02 05:29:58;;;;;;;8.38;3.75;;;14.30;99.90;;;;;;4999223;28;20089;-71
2023/06/02 05:32:24;;;;;;;9.70;3.60;;;14.30;99.90;;;;;;4998367;28;20038;-71
2023/06/02 05:34:51;;;;;;;11.45;3.97;;;14.20;99.90;;;;;;4998282;28;20034;-71
2023/06/02 05:37:17;;;;;;;6.22;3.67;;;14.00;99.90;;;;;;4999360;28;20029;-71
2023/06/02 05:39:43;;;;;;;7.45;3.50;;;14.00;99.90;;;;;;4998157;28;20026;-71
2023/06/02 05:42:08;;;;;;;7.38;3.53;;;14.00;99.90;;;;;;4997958;28;20023;-71
2023/06/02 05:44:34;;;;;;;5.47;3.67;;;14.00;99.90;;;;;;4999259;28;20035;-71
2023/06/02 05:47:00;;;;;;;13.38;4.10;;;14.00;99.90;;;;;;4998879;28;20045;-71
2023/06/02 05:49:25;;;;;;;6.85;3.15;;;14.00;99.90;;;;;;4998815;28;20028;-71
2023/06/02 05:51:51;;;;;;;8.75;3.60;;;14.00;99.90;;;;;;4997932;28;20054;-72
2023/06/02 05:54:16;;;;;;;5.15;2.97;;;14.20;99.90;;;;;;4997905;28;20069;-71
2023/06/02 05:56:42;;;;;;;9.48;3.50;;;14.30;99.90;;;;;;4998743;28;20117;-71
2023/06/02 05:59:09;;;;;;;8.05;3.45;;;14.40;99.90;;;;;;4997730;28;20030;-71
2023/06/02 06:01:35;;;;;;;9.20;3.47;;;14.40;99.90;;;;;;4998474;28;20022;-71
2023/06/02 06:04:01;;;;;;;10.35;3.70;;;14.20;99.90;;;;;;4998611;28;20022;-71
2023/06/02 06:06:27;;;;;;;8.68;3.13;;;14.30;99.90;;;;;;4997918;28;20025;-71
2023/06/02 06:08:52;;;;;;;6.88;3.55;;;14.20;99.90;;;;;;4998540;28;20026;-71
2023/06/02 06:11:18;;;;;;;10.35;3.17;;;14.10;99.90;;;;;;4997508;28;20030;-71
2023/06/02 06:13:43;;;;;;;6.00;3.00;;;14.20;99.90;;;;;;4997715;28;20033;-71
2023/06/02 06:16:09;;;;;;;6.20;3.33;;;14.50;99.90;;;;;;4997773;28;20030;-71
2023/06/02 06:18:35;;;;;;;8.68;3.42;;;14.50;99.90;;;;;;4997357;28;20026;-71
2023/06/02 06:21:00;;;;;;;9.48;3.38;;;14.50;99.90;;;;;;4996790;28;20062;-71
2023/06/02 06:23:26;;;;;;;9.60;3.33;;;14.50;99.90;;;;;;4997450;28;20019;-72
2023/06/02 06:25:51;;;;;;;6.25;3.30;;;14.70;99.90;;;;;;4997215;28;20028;-71
2023/06/02 06:28:17;;;;;;;10.30;4.10;;;14.70;99.90;;;;;;4997424;28;20030;-71
2023/06/02 06:30:45;;;;;;;9.20;3.40;;;14.50;99.90;;;;;;4997564;28;20030;-68
2023/06/02 06:33:10;;;;;;;4.88;3.53;;;14.40;99.90;;;;;;4997258;28;20030;-69
2023/06/02 06:35:36;;;;;;;6.43;3.25;;;14.50;99.90;;;;;;4997262;28;20033;-69
2023/06/02 06:38:01;;;;;;;6.95;3.42;;;14.50;99.90;;;;;;4997945;28;20125;-69
2023/06/02 06:40:27;;;;;;;6.95;3.40;;;14.30;99.90;;;;;;4997249;28;20022;-68
2023/06/02 06:42:53;;;;;;;10.73;3.70;;;14.30;99.90;;;;;;4997360;28;20053;-69
2023/06/02 06:45:18;;;;;;;4.78;3.38;;;14.40;99.90;;;;;;4997008;28;20026;-69
2023/06/02 06:47:44;;;;;;;10.32;3.47;;;14.80;99.90;;;;;;4997297;28;20022;-69
2023/06/02 06:50:12;;;;;;;10.95;3.30;;;15.00;99.90;;;;;;4997204;28;20026;-69
2023/06/02 06:52:37;;;;;;;8.60;3.38;;;15.00;99.90;;;;;;4997881;28;20030;-69
2023/06/02 06:55:03;;;;;;;5.63;3.80;;;15.20;99.90;;;;;;4997026;28;20023;-68
2023/06/02 06:57:29;;;;;;;7.78;3.70;;;14.90;99.90;;;;;;4996915;28;20034;-68
2023/06/02 06:59:54;;;;;;;11.90;3.85;;;14.70;99.90;;;;;;4996803;28;20045;-69
2023/06/02 07:02:20;;;;;;;5.43;2.97;;;14.60;99.90;;;;;;4997137;28;20018;-69
2023/06/02 07:04:45;;;;;;;8.00;3.70;;;14.20;99.90;;;;;;4997480;28;20026;-69
2023/06/02 07:07:13;;;;;;;7.47;3.25;;;14.30;99.90;;;;;;4997307;28;20023;-69
2023/06/02 07:09:38;;;;;;;10.50;3.58;;;14.20;99.90;;;;;;4997797;28;20030;-69
2023/06/02 07:12:05;;;;;;;5.95;2.97;;;14.30;99.90;;;;;;4997000;28;20096;-68
2023/06/02 07:14:30;;;;;;;8.55;3.70;;;14.60;99.90;;;;;;4997581;28;20035;-69
2023/06/02 07:16:56;;;;;;;7.93;3.72;;;14.90;99.90;;;;;;4996688;28;20030;-69
2023/06/02 07:19:22;;;;;;;8.90;3.70;;;15.20;99.90;;;;;;4996849;28;20037;-69
2023/06/02 07:21:47;;;;;;;6.85;3.50;;;15.30;99.90;;;;;;4996550;28;20031;-70
2023/06/02 07:24:13;;;;;;;9.82;3.40;;;15.50;99.90;;;;;;4997584;28;20027;-69
2023/06/02 07:26:39;;;;;;;11.95;3.70;;;15.50;99.90;;;;;;4996500;28;20030;-69
2023/06/02 07:29:05;;;;;;;10.75;3.53;;;15.50;99.90;;;;;;4997003;28;20121;-69
2023/06/02 07:31:30;;;;;;;10.20;3.53;;;15.50;99.90;;;;;;4997619;28;20061;-69
2023/06/02 07:33:56;;;;;;;12.60;3.92;;;15.50;99.90;;;;;;4998770;28;20057;-69
2023/06/02 07:36:23;;;;;;;9.73;3.47;;;15.60;99.90;;;;;;5001507;28;20030;-69
2023/06/02 07:38:49;;;;;;;9.07;3.28;;;15.80;99.90;;;;;;5001290;28;20034;-69
2023/06/02 07:41:15;;;;;;;7.82;3.63;;;16.00;99.90;;;;;;5000930;28;20085;-69
2023/06/02 07:43:40;;;;;;;6.03;3.13;;;16.10;99.90;;;;;;5000587;28;20065;-69
2023/06/02 07:46:06;;;;;;;8.27;3.10;;;16.10;99.90;;;;;;5001560;28;20033;-71
2023/06/02 07:48:32;;;;;;;6.63;3.30;;;16.40;99.90;;;;;;5000356;28;20023;-71
2023/06/02 07:50:57;;;;;;;6.45;3.10;;;16.50;99.90;;;;;;5000342;28;20030;-71
2023/06/02 07:53:23;;;;;;;10.10;2.97;;;16.60;99.90;;;;;;5001691;28;20100;-71
2023/06/02 07:55:48;;;;;;;12.23;3.40;;;16.50;99.90;;;;;;5000060;28;20127;-71
2023/06/02 07:58:14;;;;;;;9.70;3.45;;;16.40;99.90;;;;;;5000018;28;20042;-71
2023/06/02 08:00:39;;;;;;;7.82;2.95;;;16.10;99.90;;;;;;5000476;28;20093;-71
2023/06/02 08:03:05;;;;;;;7.97;3.90;;;16.20;99.90;;;;;;5000555;28;20027;-71
2023/06/02 08:05:30;;;;;;;9.43;3.45;;;16.20;99.90;;;;;;5001083;28;20029;-71
2023/06/02 08:07:56;;;;;;;10.50;3.40;;;16.30;99.90;;;;;;4999914;28;20026;-71
2023/06/02 08:10:21;;;;;;;6.60;3.42;;;16.20;99.90;;;;;;5000678;28;20027;-71
2023/06/02 08:12:47;;;;;;;10.48;3.22;;;16.10;99.90;;;;;;4999828;28;20022;-70
2023/06/02 08:15:12;;;;;;;6.03;2.72;;;16.00;99.90;;;;;;4999788;28;20029;-71
2023/06/02 08:17:38;;;;;;;23.40;4.10;;;15.80;99.90;;;;;;5000646;28;20027;-71
2023/06/02 08:20:07;;;;;;;4.93;3.30;;;15.70;99.90;;;;;;5000679;28;20030;-71
2023/06/02 08:22:34;;;;;;;6.60;3.42;;;15.90;99.90;;;;;;4999986;28;20026;-71
2023/06/02 08:25:00;;;;;;;5.68;3.40;;;16.00;99.90;;;;;;5000594;28;20029;-71
2023/06/02 08:27:26;;;;;;;7.55;3.53;;;16.10;99.90;;;;;;5000449;28;20022;-71
2023/06/02 08:29:53;;;;;;;9.15;3.63;;;16.30;99.90;;;;;;5000368;28;20088;-71
2023/06/02 08:32:22;;;;;;;9.82;3.20;;;16.20;99.90;;;;;;5000424;28;20117;-71
2023/06/02 08:34:55;;;;;;;8.95;3.38;;;16.30;99.90;;;;;;4999482;28;20026;-71
2023/06/02 08:37:21;;;;;;;8.10;3.75;;;16.40;99.90;;;;;;5000240;28;20026;-71
2023/06/02 08:39:49;;;;;;;13.73;3.90;;;16.60;99.90;;;;;;4999046;28;20022;-71
2023/06/02 08:42:15;;;;;;;8.50;3.55;;;16.70;99.90;;;;;;4999219;28;20022;-71
2023/06/02 08:44:43;;;;;;;9.60;3.38;;;16.60;99.90;;;;;;5000016;28;20026;-71
2023/06/02 08:47:11;;;;;;;9.65;3.33;;;16.40;99.90;;;;;;4999907;28;20026;-71
2023/06/02 08:49:46;;;;;;;8.88;3.17;;;16.50;99.90;;;;;;4999198;28;20030;-71
2023/06/02 08:52:27;;;;;;;11.30;4.13;;;16.50;99.90;;;;;;5000138;28;20106;-71
2023/06/02 08:54:55;;;;;;;8.45;3.53;;;16.50;99.90;;;;;;4999349;28;20026;-71
2023/06/02 08:57:22;;;;;;;8.30;3.30;;;16.50;99.90;;;;;;4998927;28;20057;-71
2023/06/02 08:59:49;;;;;;;8.25;3.58;;;16.60;99.90;;;;;;4999647;28;20037;-71
2023/06/02 09:02:16;;;;;;;7.20;3.45;;;16.60;99.90;;;;;;4999309;28;20022;-71
2023/06/02 09:04:42;;;;;;;14.07;4.28;;;16.60;99.90;;;;;;5000097;28;20022;-71
2023/06/02 09:07:15;;;;;;;8.70;3.75;;;16.70;99.90;;;;;;4999359;28;20030;-71
2023/06/02 09:09:40;;;;;;;8.25;3.35;;;16.60;99.90;;;;;;4998811;28;20026;-71
2023/06/02 09:12:08;;;;;;;14.65;3.60;;;16.70;99.90;;;;;;4998665;28;20181;-71
2023/06/02 09:14:34;;;;;;;11.30;3.47;;;16.70;99.90;;;;;;4998641;28;20030;-71
2023/06/02 09:17:00;;;;;;;16.27;3.70;;;16.90;99.90;;;;;;4998598;28;20057;-71
2023/06/02 09:19:26;;;;;;;11.18;4.38;;;17.10;99.90;;;;;;4999521;28;20070;-71
2023/06/02 09:22:03;;;;;;;10.98;3.47;;;17.10;99.90;;;;;;4999407;28;20018;-71
2023/06/02 09:24:32;;;;;;;11.35;3.97;;;17.40;99.90;;;;;;4999429;28;20027;-71
2023/06/02 09:26:58;;;;;;;8.77;3.38;;;17.20;99.90;;;;;;4999578;28;20022;-71
2023/06/02 09:29:24;;;;;;;13.57;3.92;;;17.20;99.90;;;;;;4999360;28;20033;-71
2023/06/02 09:31:52;;;;;;;9.15;3.60;;;17.40;99.90;;;;;;4998160;28;20070;-71
2023/06/02 09:34:19;;;;;;;9.70;3.75;;;17.30;99.90;;;;;;4998387;28;20053;-71
2023/06/02 09:36:50;;;;;;;7.00;3.72;;;17.60;99.90;;;;;;4999170;28;20054;-71
2023/06/02 09:39:32;;;;;;;11.45;4.32;;;17.40;99.90;;;;;;4999363;28;20027;-71
2023/06/02 09:41:58;;;;;;;10.43;3.90;;;17.60;99.90;;;;;;4998265;28;20089;-71
2023/06/02 09:44:25;;;;;;;13.52;3.70;;;17.70;99.90;;;;;;4998226;28;20026;-71
2023/06/02 09:46:50;;;;;;;13.68;4.07;;;17.80;99.90;;;;;;4998893;28;20018;-71
2023/06/02 09:49:16;;;;;;;16.70;4.13;;;18.00;99.90;;;;;;4999022;28;20094;-71
2023/06/02 09:51:42;;;;;;;12.57;4.00;;;17.90;99.90;;;;;;4998682;28;20034;-71
2023/06/02 09:54:08;;;;;;;9.57;3.83;;;17.90;99.90;;;;;;4998836;28;20113;-71
2023/06/02 09:56:37;;;;;;;8.88;3.97;;;17.90;99.90;;;;;;4998468;28;20023;-71
2023/06/02 09:59:05;;;;;;;12.00;3.72;;;17.90;99.90;;;;;;4997648;28;20022;-72
2023/06/02 10:01:32;;;;;;;17.45;4.22;;;18.00;99.90;;;;;;4998609;28;20026;-72
2023/06/02 10:03:57;;;;;;;11.40;3.88;;;18.00;99.90;;;;;;4998606;28;20033;-72
2023/06/02 10:06:40;;;;;;;14.25;3.75;;;18.20;99.90;;;;;;4998929;28;20030;-72
2023/06/02 10:09:17;;;;;;;11.68;3.90;;;18.50;99.90;;;;;;4997693;28;20027;-72
2023/06/02 10:11:42;;;;;;;9.35;3.10;;;18.40;99.90;;;;;;4998710;28;20114;-72
2023/06/02 10:14:26;;;;;;;20.15;3.83;;;18.50;99.90;;;;;;4997509;28;20058;-74
2023/06/02 10:17:01;;;;;;;13.10;4.05;;;18.40;99.90;;;;;;4998632;28;20066;-74
2023/06/02 10:19:54;;;;;;;14.02;4.07;;;18.70;99.90;;;;;;4998361;28;20030;-74
2023/06/02 10:22:45;;;;;;;12.65;4.03;;;18.80;99.90;;;;;;4997753;28;20040;-73
2023/06/02 10:25:20;;;;;;;8.60;3.40;;;18.90;99.90;;;;;;4992597;28;20113;-73
2023/06/02 10:28:00;;;;;;;10.05;3.63;;;19.10;99.90;;;;;;4997368;28;20033;-74
2023/06/02 10:30:26;;;;;;;8.07;3.67;;;19.40;99.90;;;;;;4997923;28;20049;-73
2023/06/02 10:32:53;;;;;;;15.27;4.07;;;19.30;99.90;;;;;;4997295;28;20026;-73
2023/06/02 10:35:19;;;;;;;9.65;3.95;;;19.20;99.90;;;;;;4998068;28;20069;-72
2023/06/02 10:37:45;;;;;;;15.13;4.15;;;19.30;99.90;;;;;;4997452;28;20046;-72
2023/06/02 10:40:14;;;;;;;9.75;3.95;;;19.50;99.90;;;;;;4997245;28;20038;-73
2023/06/02 10:43:10;;;;;;;11.95;4.15;;;19.80;99.90;;;;;;4997154;28;20026;-74
2023/06/02 10:45:36;;;;;;;13.45;4.20;;;20.10;99.90;;;;;;4998262;28;20027;-74
2023/06/02 10:48:01;;;;;;;8.73;3.20;;;20.20;99.90;;;;;;4996950;28;20027;-74
2023/06/02 10:50:54;;;;;;;10.27;3.45;;;20.20;99.90;;;;;;4997868;28;20027;-74
2023/06/02 10:53:20;;;;;;;10.85;4.13;;;20.10;99.90;;;;;;4997707;28;20022;-73
2023/06/02 10:55:45;;;;;;;15.90;4.35;;;20.50;99.90;;;;;;4996966;28;20029;-72
2023/06/02 10:58:12;;;;;;;12.27;3.38;;;20.70;99.90;;;;;;4996814;28;20025;-72
2023/06/02 11:00:43;;;;;;;6.60;2.97;;;21.20;99.90;;;;;;4997070;28;20026;-74
2023/06/02 11:03:17;;;;;;;14.23;3.65;;;21.40;99.90;;;;;;4997993;28;20022;-73
2023/06/02 11:05:44;;;;;;;13.35;3.35;;;21.40;98.40;;;;;;4996832;28;20030;-74
2023/06/02 11:08:14;;;;;;;16.90;3.75;;;21.50;99.00;;;;;;4997544;28;20077;-74
2023/06/02 11:10:47;;;;;;;11.50;3.90;;;21.50;99.00;;;;;;4996916;28;20026;-72
2023/06/02 11:13:17;;;;;;;10.23;3.58;;;21.90;99.90;;;;;;4997791;28;20101;-73
2023/06/02 11:15:55;;;;;;;11.68;3.58;;;21.80;98.30;;;;;;4996676;28;20030;-73
2023/06/02 11:18:33;;;;;;;15.02;3.63;;;21.30;98.20;;;;;;4997485;28;20026;-73
2023/06/02 11:21:01;;;;;;;17.10;3.53;;;21.60;98.50;;;;;;4996752;28;20044;-72
2023/06/02 11:23:27;;;;;;;16.23;3.42;;;22.20;97.10;;;;;;4996934;28;20028;-72
2023/06/02 11:26:05;;;;;;;9.48;3.50;;;22.10;95.50;;;;;;4997183;28;20034;-71
2023/06/02 11:28:31;;;;;;;6.68;3.13;;;22.30;95.80;;;;;;4997510;28;20081;-72
2023/06/02 11:31:11;;;;;;;11.63;3.90;;;22.40;95.60;;;;;;4997500;28;20034;-71
2023/06/02 11:33:39;;;;;;;11.50;3.42;;;22.20;94.70;;;;;;4996782;28;20027;-71
2023/06/02 11:36:09;;;;;;;12.95;2.92;;;22.00;94.60;;;;;;4996581;28;20118;-72
2023/06/02 11:38:36;;;;;;;11.13;3.33;;;22.60;95.40;;;;;;4997268;28;20031;-72
2023/06/02 11:41:15;;;;;;;12.40;3.45;;;22.30;93.10;;;;;;4996458;28;20285;-72
2023/06/02 11:43:44;;;;;;;9.80;3.33;;;22.10;92.70;;;;;;4996696;28;20027;-71
2023/06/02 11:46:15;;;;;;;9.25;3.08;;;22.40;94.40;;;;;;4996419;28;20023;-72
2023/06/02 11:48:41;;;;;;;8.05;2.75;;;22.70;92.10;;;;;;4996474;28;20165;-72
2023/06/02 11:51:08;;;;;;;7.82;3.40;;;23.10;93.00;;;;;;4996368;28;20070;-74
2023/06/02 11:53:35;;;;;;;8.48;2.90;;;23.40;91.50;;;;;;4996651;28;20030;-73
2023/06/02 11:56:01;;;;;;;10.60;3.10;;;23.50;91.40;;;;;;4996569;28;20035;-74
2023/06/02 11:58:28;;;;;;;9.82;2.95;;;23.90;92.00;;;;;;4997203;28;20026;-74
2023/06/02 12:01:09;;;;;;;7.70;2.40;;;23.70;91.40;;;;;;4996890;28;20026;-73
2023/06/02 12:03:36;;;;;;;5.30;2.92;;;23.70;91.00;;;;;;4997185;28;20026;-73
2023/06/02 12:06:28;;;;;;;9.60;3.47;;;24.10;93.00;;;;;;4996416;28;20027;-73
2023/06/02 12:08:55;;;;;;;11.65;2.83;;;24.00;90.10;;;;;;4995420;28;20030;-73
2023/06/02 12:11:22;;;;;;;9.55;3.05;;;23.60;88.30;;;;;;4996201;28;20032;-73
2023/06/02 12:14:06;;;;;;;8.35;3.33;;;23.80;90.40;;;;;;4996557;28;20023;-73
2023/06/02 12:16:34;;;;;;;7.15;2.90;;;24.30;89.20;;;;;;4997178;28;20022;-74
2023/06/02 12:19:31;;;;;;;12.35;3.15;;;24.10;89.70;;;;;;4997525;28;20030;-74
2023/06/02 12:22:06;;;;;;;7.53;2.30;;;24.50;87.50;;;;;;4963554;28;20031;-73
2023/06/02 12:24:33;;;;;;;11.85;2.78;;;24.40;83.10;;;;;;4979578;28;20055;-74
2023/06/02 12:27:00;;;;;;;8.73;2.88;;;24.10;86.20;;;;;;4979612;28;20035;-74
2023/06/02 12:29:25;;;;;;;9.18;2.90;;;23.90;83.70;;;;;;4979571;28;20031;-74
2023/06/02 12:31:58;;;;;;;11.02;3.13;;;24.20;83.50;;;;;;5018206;22;20046;-73
2023/06/02 12:34:24;;;;;;;13.20;2.97;;;24.40;83.00;;;;;;4999535;28;20084;-74
2023/06/02 12:36:51;;;;;;;5.20;2.70;;;24.30;81.40;;;;;;4999398;28;20098;-74
2023/06/02 12:39:17;;;;;;;9.00;2.63;;;24.50;80.90;;;;;;4999531;28;20057;-74
2023/06/02 12:41:42;;;;;;;7.85;2.30;;;24.40;79.10;;;;;;4999575;28;20022;-74
2023/06/02 12:44:08;;;;;;;9.05;2.33;;;24.30;77.70;;;;;;5000864;28;20029;-74
2023/06/02 12:46:34;;;;;;;11.93;2.75;;;23.80;79.50;;;;;;4999653;28;20029;-74